sensor_id;sensor_type;location;lat;lon;timestamp;pressure;altitude;pressure_sealevel;temperature;humidity
8573;BME280;4324;42.012;24.872;2023-05-08T00:00:10;99165.63;;;15.26;54.52
8573;BME280;4324;42.012;24.872;2023-05-08T00:02:39;99155.91;;;15.18;54.56
8573;BME280;4324;42.012;24.872;2023-05-08T00:05:06;99148.22;;;15.09;54.29
8573;BME280;4324;42.012;24.872;2023-05-08T00:07:36;99160.13;;;15.06;54.87
8573;BME280;4324;42.012;24.872;2023-05-08T00:10:04;99144.44;;;14.96;54.99
8573;BME280;4324;42.012;24.872;2023-05-08T00:12:31;99144.81;;;14.93;55.30
8573;BME280;4324;42.012;24.872;2023-05-08T00:14:58;99122.09;;;14.76;55.15
8573;BME280;4324;42.012;24.872;2023-05-08T00:17:25;99134.41;;;14.77;55.01
8573;BME280;4324;42.012;24.872;2023-05-08T00:19:52;99091.56;;;14.42;54.78
8573;BME280;4324;42.012;24.872;2023-05-08T00:22:19;99131.09;;;14.54;54.80
8573;BME280;4324;42.012;24.872;2023-05-08T00:24:48;99152.22;;;14.55;55.23
8573;BME280;4324;42.012;24.872;2023-05-08T00:27:14;99139.63;;;14.34;55.44
8573;BME280;4324;42.012;24.872;2023-05-08T00:29:41;99157.66;;;14.32;55.29
8573;BME280;4324;42.012;24.872;2023-05-08T00:32:08;99084.44;;;13.77;54.71
8573;BME280;4324;42.012;24.872;2023-05-08T00:34:35;99147.50;;;14.06;54.95
8573;BME280;4324;42.012;24.872;2023-05-08T00:37:02;99150.88;;;14.00;55.18
8573;BME280;4324;42.012;24.872;2023-05-08T00:39:29;99135.94;;;13.84;55.60
8573;BME280;4324;42.012;24.872;2023-05-08T00:41:57;99166.13;;;13.91;55.69
8573;BME280;4324;42.012;24.872;2023-05-08T00:44:25;99163.38;;;13.85;55.85
8573;BME280;4324;42.012;24.872;2023-05-08T00:46:52;99177.69;;;13.84;55.39
8573;BME280;4324;42.012;24.872;2023-05-08T00:49:19;99107.81;;;13.37;55.35
8573;BME280;4324;42.012;24.872;2023-05-08T00:51:46;99173.34;;;13.83;55.46
8573;BME280;4324;42.012;24.872;2023-05-08T00:54:15;99160.59;;;13.78;55.57
8573;BME280;4324;42.012;24.872;2023-05-08T00:56:42;99149.59;;;13.81;55.82
8573;BME280;4324;42.012;24.872;2023-05-08T00:59:13;99170.34;;;14.00;55.56
8573;BME280;4324;42.012;24.872;2023-05-08T01:01:42;99149.50;;;13.89;55.13
8573;BME280;4324;42.012;24.872;2023-05-08T01:04:09;99098.13;;;13.59;55.19
8573;BME280;4324;42.012;24.872;2023-05-08T01:06:36;99118.75;;;13.72;55.45
8573;BME280;4324;42.012;24.872;2023-05-08T01:09:03;99169.25;;;14.10;55.40
8573;BME280;4324;42.012;24.872;2023-05-08T01:11:36;99170.53;;;14.14;55.31
8573;BME280;4324;42.012;24.872;2023-05-08T01:14:10;99140.78;;;13.95;54.95
8573;BME280;4324;42.012;24.872;2023-05-08T01:16:43;99178.41;;;14.22;54.42
8573;BME280;4324;42.012;24.872;2023-05-08T01:19:31;99167.22;;;14.12;55.01
8573;BME280;4324;42.012;24.872;2023-05-08T01:22:14;99119.31;;;13.82;54.73
8573;BME280;4324;42.012;24.872;2023-05-08T01:28:12;99168.69;;;13.99;54.67
8573;BME280;4324;42.012;24.872;2023-05-08T01:31:11;99195.31;;;13.99;54.63
8573;BME280;4324;42.012;24.872;2023-05-08T01:33:46;99189.91;;;13.93;54.99
8573;BME280;4324;42.012;24.872;2023-05-08T01:36:22;99191.06;;;13.90;55.05
8573;BME280;4324;42.012;24.872;2023-05-08T01:38:56;99198.78;;;13.85;55.06
8573;BME280;4324;42.012;24.872;2023-05-08T01:41:29;99141.78;;;13.50;55.06
8573;BME280;4324;42.012;24.872;2023-05-08T01:44:12;99162.06;;;13.66;55.30
8573;BME280;4324;42.012;24.872;2023-05-08T01:46:44;99186.19;;;13.79;55.57
8573;BME280;4324;42.012;24.872;2023-05-08T01:49:19;99179.59;;;13.75;55.73
8573;BME280;4324;42.012;24.872;2023-05-08T01:51:51;99122.94;;;13.37;55.82
8573;BME280;4324;42.012;24.872;2023-05-08T01:54:22;99101.28;;;13.25;55.84
8573;BME280;4324;42.012;24.872;2023-05-08T01:56:54;99184.84;;;13.83;55.59
8573;BME280;4324;42.012;24.872;2023-05-08T01:59:22;99134.06;;;13.55;55.74
8573;BME280;4324;42.012;24.872;2023-05-08T02:01:53;99166.94;;;13.77;55.93
8573;BME280;4324;42.012;24.872;2023-05-08T02:04:22;99150.59;;;13.65;56.00
8573;BME280;4324;42.012;24.872;2023-05-08T02:06:51;99087.63;;;13.28;56.28
8573;BME280;4324;42.012;24.872;2023-05-08T02:09:20;99186.97;;;13.88;55.88
8573;BME280;4324;42.012;24.872;2023-05-08T02:11:48;99188.97;;;13.86;56.12
8573;BME280;4324;42.012;24.872;2023-05-08T02:14:19;99163.97;;;13.72;56.41
8573;BME280;4324;42.012;24.872;2023-05-08T02:16:47;99185.69;;;13.84;56.13
8573;BME280;4324;42.012;24.872;2023-05-08T02:19:17;99179.06;;;13.79;56.45
8573;BME280;4324;42.012;24.872;2023-05-08T02:21:47;99169.03;;;13.67;56.24
8573;BME280;4324;42.012;24.872;2023-05-08T02:24:16;99121.81;;;13.31;56.08
8573;BME280;4324;42.012;24.872;2023-05-08T02:26:44;99166.47;;;13.59;56.66
8573;BME280;4324;42.012;24.872;2023-05-08T02:29:12;99164.97;;;13.56;56.73
8573;BME280;4324;42.012;24.872;2023-05-08T02:31:40;99174.91;;;13.62;56.79
8573;BME280;4324;42.012;24.872;2023-05-08T02:34:08;99166.19;;;13.53;57.01
8573;BME280;4324;42.012;24.872;2023-05-08T02:36:36;99163.22;;;13.48;56.38
8573;BME280;4324;42.012;24.872;2023-05-08T02:39:07;99154.31;;;13.41;57.07
8573;BME280;4324;42.012;24.872;2023-05-08T02:41:39;99174.53;;;13.50;57.20
8573;BME280;4324;42.012;24.872;2023-05-08T02:44:07;99179.50;;;13.53;56.86
8573;BME280;4324;42.012;24.872;2023-05-08T02:46:40;99177.34;;;13.49;57.34
8573;BME280;4324;42.012;24.872;2023-05-08T02:49:18;99169.72;;;13.46;57.09
8573;BME280;4324;42.012;24.872;2023-05-08T02:51:53;99148.53;;;13.38;57.45
8573;BME280;4324;42.012;24.872;2023-05-08T02:54:27;99173.41;;;13.45;57.35
8573;BME280;4324;42.012;24.872;2023-05-08T02:57:00;99190.13;;;13.53;57.51
8573;BME280;4324;42.012;24.872;2023-05-08T02:59:35;99177.53;;;13.47;57.50
8573;BME280;4324;42.012;24.872;2023-05-08T03:02:08;99162.03;;;13.36;56.89
8573;BME280;4324;42.012;24.872;2023-05-08T03:04:42;99180.56;;;13.44;56.80
8573;BME280;4324;42.012;24.872;2023-05-08T03:07:11;99192.13;;;13.51;57.25
8573;BME280;4324;42.012;24.872;2023-05-08T03:09:43;99165.69;;;13.35;57.65
8573;BME280;4324;42.012;24.872;2023-05-08T03:12:13;99179.63;;;13.37;57.94
8573;BME280;4324;42.012;24.872;2023-05-08T03:14:44;99154.78;;;13.22;57.64
8573;BME280;4324;42.012;24.872;2023-05-08T03:17:15;99152.97;;;13.22;57.72
8573;BME280;4324;42.012;24.872;2023-05-08T03:19:47;99200.78;;;13.53;58.02
8573;BME280;4324;42.012;24.872;2023-05-08T03:22:18;99177.06;;;13.44;58.33
8573;BME280;4324;42.012;24.872;2023-05-08T03:24:47;99194.72;;;13.60;58.21
8573;BME280;4324;42.012;24.872;2023-05-08T03:27:15;99186.56;;;13.61;57.95
8573;BME280;4324;42.012;24.872;2023-05-08T03:29:44;99177.47;;;13.55;58.11
8573;BME280;4324;42.012;24.872;2023-05-08T03:32:12;99169.22;;;13.50;58.38
8573;BME280;4324;42.012;24.872;2023-05-08T03:34:40;99194.81;;;13.66;58.91
8573;BME280;4324;42.012;24.872;2023-05-08T03:37:07;99197.75;;;13.71;58.98
8573;BME280;4324;42.012;24.872;2023-05-08T03:39:34;99117.25;;;13.25;58.68
8573;BME280;4324;42.012;24.872;2023-05-08T03:42:03;99203.19;;;13.78;58.52
8573;BME280;4324;42.012;24.872;2023-05-08T03:44:31;99210.47;;;13.84;59.04
8573;BME280;4324;42.012;24.872;2023-05-08T03:46:59;99207.13;;;13.82;59.13
8573;BME280;4324;42.012;24.872;2023-05-08T03:49:28;99166.00;;;13.55;59.13
8573;BME280;4324;42.012;24.872;2023-05-08T03:51:56;99201.19;;;13.80;59.35
8573;BME280;4324;42.012;24.872;2023-05-08T03:54:24;99208.72;;;13.91;58.88
8573;BME280;4324;42.012;24.872;2023-05-08T03:56:53;99214.97;;;13.98;58.20
8573;BME280;4324;42.012;24.872;2023-05-08T03:59:31;99209.25;;;14.01;59.19
8573;BME280;4324;42.012;24.872;2023-05-08T04:02:11;99192.38;;;13.94;59.10
8573;BME280;4324;42.012;24.872;2023-05-08T04:04:40;99159.97;;;13.76;58.91
8573;BME280;4324;42.012;24.872;2023-05-08T04:07:12;99216.81;;;14.13;59.43
8573;BME280;4324;42.012;24.872;2023-05-08T04:09:44;99178.78;;;13.89;59.56
8573;BME280;4324;42.012;24.872;2023-05-08T04:12:17;99196.88;;;14.09;59.35
8573;BME280;4324;42.012;24.872;2023-05-08T04:14:50;99210.38;;;14.22;59.74
8573;BME280;4324;42.012;24.872;2023-05-08T04:17:25;99192.28;;;14.17;59.78
8573;BME280;4324;42.012;24.872;2023-05-08T04:20:02;99207.59;;;14.30;60.11
8573;BME280;4324;42.012;24.872;2023-05-08T04:22:33;99217.34;;;14.52;59.91
8573;BME280;4324;42.012;24.872;2023-05-08T04:25:03;99223.78;;;14.58;60.13
8573;BME280;4324;42.012;24.872;2023-05-08T04:27:32;99181.88;;;14.37;60.10
8573;BME280;4324;42.012;24.872;2023-05-08T04:30:02;99206.88;;;14.66;60.10
8573;BME280;4324;42.012;24.872;2023-05-08T04:32:31;99217.75;;;14.86;59.75
8573;BME280;4324;42.012;24.872;2023-05-08T04:34:59;99217.81;;;14.92;59.81
8573;BME280;4324;42.012;24.872;2023-05-08T04:37:28;99206.72;;;14.89;60.05
8573;BME280;4324;42.012;24.872;2023-05-08T04:39:55;99226.97;;;15.05;60.04
8573;BME280;4324;42.012;24.872;2023-05-08T04:42:23;99221.91;;;15.10;59.97
8573;BME280;4324;42.012;24.872;2023-05-08T04:44:51;99210.41;;;15.09;60.33
8573;BME280;4324;42.012;24.872;2023-05-08T04:47:19;99220.63;;;15.27;60.22
8573;BME280;4324;42.012;24.872;2023-05-08T04:49:46;99196.75;;;15.19;59.93
8573;BME280;4324;42.012;24.872;2023-05-08T04:52:13;99218.84;;;15.34;59.92
8573;BME280;4324;42.012;24.872;2023-05-08T04:54:40;99215.19;;;15.35;59.90
8573;BME280;4324;42.012;24.872;2023-05-08T04:57:07;99130.78;;;14.85;59.85
8573;BME280;4324;42.012;24.872;2023-05-08T04:59:34;99199.28;;;15.27;59.99
8573;BME280;4324;42.012;24.872;2023-05-08T05:02:01;99208.97;;;15.28;59.78
8573;BME280;4324;42.012;24.872;2023-05-08T05:04:29;99222.53;;;15.33;60.02
8573;BME280;4324;42.012;24.872;2023-05-08T05:06:56;99209.72;;;15.22;60.01
8573;BME280;4324;42.012;24.872;2023-05-08T05:09:23;99160.44;;;14.96;60.28
8573;BME280;4324;42.012;24.872;2023-05-08T05:11:50;99215.94;;;15.29;60.14
8573;BME280;4324;42.012;24.872;2023-05-08T05:14:17;99208.31;;;15.26;60.21
8573;BME280;4324;42.012;24.872;2023-05-08T05:16:44;99146.34;;;14.81;60.64
8573;BME280;4324;42.012;24.872;2023-05-08T05:19:11;99216.31;;;15.26;60.84
8573;BME280;4324;42.012;24.872;2023-05-08T05:21:39;99150.06;;;14.87;60.77
8573;BME280;4324;42.012;24.872;2023-05-08T05:24:07;99220.25;;;15.30;60.95
8573;BME280;4324;42.012;24.872;2023-05-08T05:26:37;99182.81;;;15.17;60.94
8573;BME280;4324;42.012;24.872;2023-05-08T05:29:04;99198.91;;;15.30;60.84
8573;BME280;4324;42.012;24.872;2023-05-08T05:31:30;99137.25;;;14.97;60.81
8573;BME280;4324;42.012;24.872;2023-05-08T05:33:57;99217.38;;;15.53;60.68
8573;BME280;4324;42.012;24.872;2023-05-08T05:36:25;99206.38;;;15.63;60.55
8573;BME280;4324;42.012;24.872;2023-05-08T05:38:53;99207.50;;;15.75;60.00
8573;BME280;4324;42.012;24.872;2023-05-08T05:41:20;99197.91;;;15.81;59.77
8573;BME280;4324;42.012;24.872;2023-05-08T05:43:47;99198.56;;;15.89;59.61
8573;BME280;4324;42.012;24.872;2023-05-08T05:46:14;99200.69;;;16.01;59.38
8573;BME280;4324;42.012;24.872;2023-05-08T05:48:41;99178.28;;;15.95;58.96
8573;BME280;4324;42.012;24.872;2023-05-08T05:51:08;99190.09;;;16.14;58.59
8573;BME280;4324;42.012;24.872;2023-05-08T05:53:35;99154.69;;;15.99;58.48
8573;BME280;4324;42.012;24.872;2023-05-08T05:56:04;99188.56;;;16.33;58.20
8573;BME280;4324;42.012;24.872;2023-05-08T05:58:31;99188.16;;;16.42;58.15
8573;BME280;4324;42.012;24.872;2023-05-08T06:00:58;99183.69;;;16.50;58.10
8573;BME280;4324;42.012;24.872;2023-05-08T06:03:26;99185.78;;;16.61;57.69
8573;BME280;4324;42.012;24.872;2023-05-08T06:05:53;99157.38;;;16.47;57.40
8573;BME280;4324;42.012;24.872;2023-05-08T06:08:20;99143.81;;;16.55;57.28
8573;BME280;4324;42.012;24.872;2023-05-08T06:10:47;99185.28;;;16.85;56.62
8573;BME280;4324;42.012;24.872;2023-05-08T06:13:15;99172.50;;;16.81;56.32
8573;BME280;4324;42.012;24.872;2023-05-08T06:15:42;99181.16;;;16.89;55.92
8573;BME280;4324;42.012;24.872;2023-05-08T06:18:09;99172.75;;;16.92;55.85
8573;BME280;4324;42.012;24.872;2023-05-08T06:20:36;99135.69;;;16.76;55.65
8573;BME280;4324;42.012;24.872;2023-05-08T06:23:03;99163.72;;;17.07;55.48
8573;BME280;4324;42.012;24.872;2023-05-08T06:25:30;99190.88;;;17.24;55.12
8573;BME280;4324;42.012;24.872;2023-05-08T06:27:57;99164.13;;;17.04;55.18
8573;BME280;4324;42.012;24.872;2023-05-08T06:30:25;99151.56;;;17.11;54.97
8573;BME280;4324;42.012;24.872;2023-05-08T06:32:52;99185.34;;;17.38;54.78
8573;BME280;4324;42.012;24.872;2023-05-08T06:35:19;99187.63;;;17.48;54.60
8573;BME280;4324;42.012;24.872;2023-05-08T06:37:46;99172.78;;;17.46;54.17
8573;BME280;4324;42.012;24.872;2023-05-08T06:40:13;99120.28;;;17.18;54.17
8573;BME280;4324;42.012;24.872;2023-05-08T06:42:40;99165.78;;;17.45;53.87
8573;BME280;4324;42.012;24.872;2023-05-08T06:45:08;99183.69;;;17.57;53.92
8573;BME280;4324;42.012;24.872;2023-05-08T06:47:39;99178.75;;;17.67;53.68
8573;BME280;4324;42.012;24.872;2023-05-08T06:50:07;99166.19;;;17.81;53.46
8573;BME280;4324;42.012;24.872;2023-05-08T06:52:34;99153.41;;;17.70;53.09
8573;BME280;4324;42.012;24.872;2023-05-08T06:55:01;99172.56;;;17.67;53.22
8573;BME280;4324;42.012;24.872;2023-05-08T06:57:28;99140.44;;;17.54;53.25
8573;BME280;4324;42.012;24.872;2023-05-08T06:59:55;99155.88;;;17.72;53.33
8573;BME280;4324;42.012;24.872;2023-05-08T07:02:22;99136.09;;;17.79;53.13
8573;BME280;4324;42.012;24.872;2023-05-08T07:04:50;99158.94;;;18.02;52.84
8573;BME280;4324;42.012;24.872;2023-05-08T07:07:17;99149.88;;;18.03;52.80
8573;BME280;4324;42.012;24.872;2023-05-08T07:09:44;99152.13;;;18.06;52.63
8573;BME280;4324;42.012;24.872;2023-05-08T07:12:11;99149.63;;;18.18;52.67
8573;BME280;4324;42.012;24.872;2023-05-08T07:14:41;99125.28;;;18.19;52.39
8573;BME280;4324;42.012;24.872;2023-05-08T07:17:08;99132.25;;;18.27;52.22
8573;BME280;4324;42.012;24.872;2023-05-08T07:19:35;99136.34;;;18.36;52.22
8573;BME280;4324;42.012;24.872;2023-05-08T07:22:04;99127.88;;;18.39;52.05
8573;BME280;4324;42.012;24.872;2023-05-08T07:24:32;99146.16;;;18.55;51.77
8573;BME280;4324;42.012;24.872;2023-05-08T07:26:59;99146.16;;;18.55;51.91
8573;BME280;4324;42.012;24.872;2023-05-08T07:29:26;99091.63;;;18.30;52.00
8573;BME280;4324;42.012;24.872;2023-05-08T07:31:52;99133.72;;;18.61;51.76
8573;BME280;4324;42.012;24.872;2023-05-08T07:34:20;99137.81;;;18.77;51.94
8573;BME280;4324;42.012;24.872;2023-05-08T07:36:47;99100.69;;;18.74;51.66
8573;BME280;4324;42.012;24.872;2023-05-08T07:39:15;99134.66;;;19.18;51.28
8573;BME280;4324;42.012;24.872;2023-05-08T07:41:42;99135.53;;;19.37;50.77
8573;BME280;4324;42.012;24.872;2023-05-08T07:44:10;99135.81;;;19.29;50.50
8573;BME280;4324;42.012;24.872;2023-05-08T07:46:37;99140.44;;;19.15;50.88
8573;BME280;4324;42.012;24.872;2023-05-08T07:49:04;99112.47;;;18.98;51.17
8573;BME280;4324;42.012;24.872;2023-05-08T07:51:31;99136.72;;;19.16;51.25
8573;BME280;4324;42.012;24.872;2023-05-08T07:53:58;99139.97;;;19.25;51.33
8573;BME280;4324;42.012;24.872;2023-05-08T07:56:26;99143.72;;;19.42;51.13
8573;BME280;4324;42.012;24.872;2023-05-08T07:58:53;99118.69;;;19.48;50.57
8573;BME280;4324;42.012;24.872;2023-05-08T08:01:21;99138.81;;;19.64;50.48
8573;BME280;4324;42.012;24.872;2023-05-08T08:03:48;99075.75;;;19.23;50.61
8573;BME280;4324;42.012;24.872;2023-05-08T08:06:14;99121.09;;;19.56;50.57
8573;BME280;4324;42.012;24.872;2023-05-08T08:08:43;99114.06;;;19.62;50.44
8573;BME280;4324;42.012;24.872;2023-05-08T08:11:10;99126.22;;;19.83;50.56
8573;BME280;4324;42.012;24.872;2023-05-08T08:13:38;99127.50;;;19.99;50.53
8573;BME280;4324;42.012;24.872;2023-05-08T08:16:05;99060.22;;;19.87;50.19
8573;BME280;4324;42.012;24.872;2023-05-08T08:18:33;99130.38;;;20.52;49.97
8573;BME280;4324;42.012;24.872;2023-05-08T08:21:04;99104.50;;;20.70;49.71
8573;BME280;4324;42.012;24.872;2023-05-08T08:23:31;99101.13;;;20.74;49.15
8573;BME280;4324;42.012;24.872;2023-05-08T08:25:58;99037.09;;;20.35;48.91
8573;BME280;4324;42.012;24.872;2023-05-08T08:28:25;99111.22;;;20.91;49.05
8573;BME280;4324;42.012;24.872;2023-05-08T08:30:53;99104.09;;;20.96;48.95
8573;BME280;4324;42.012;24.872;2023-05-08T08:33:20;99077.38;;;20.95;48.82
8573;BME280;4324;42.012;24.872;2023-05-08T08:35:47;99083.19;;;21.10;48.58
8573;BME280;4324;42.012;24.872;2023-05-08T08:38:14;99024.38;;;20.84;48.11
8573;BME280;4324;42.012;24.872;2023-05-08T08:40:42;99095.84;;;21.45;48.41
8573;BME280;4324;42.012;24.872;2023-05-08T08:43:09;99093.75;;;21.70;48.04
8573;BME280;4324;42.012;24.872;2023-05-08T08:45:36;99093.31;;;22.02;48.03
8573;BME280;4324;42.012;24.872;2023-05-08T08:48:09;99057.06;;;22.10;47.50
8573;BME280;4324;42.012;24.872;2023-05-08T08:50:41;99080.84;;;22.36;47.16
8573;BME280;4324;42.012;24.872;2023-05-08T08:53:13;99024.19;;;21.96;47.32
8573;BME280;4324;42.012;24.872;2023-05-08T08:55:43;99048.63;;;22.06;47.38
8573;BME280;4324;42.012;24.872;2023-05-08T08:58:16;99070.22;;;22.06;47.36
8573;BME280;4324;42.012;24.872;2023-05-08T09:00:48;99060.44;;;21.77;47.23
8573;BME280;4324;42.012;24.872;2023-05-08T09:03:17;99073.34;;;21.74;47.39
8573;BME280;4324;42.012;24.872;2023-05-08T09:05:44;99030.50;;;21.38;47.54
8573;BME280;4324;42.012;24.872;2023-05-08T09:08:13;99053.09;;;21.48;47.63
8573;BME280;4324;42.012;24.872;2023-05-08T09:10:40;99069.16;;;21.55;47.84
8573;BME280;4324;42.012;24.872;2023-05-08T09:13:07;99071.50;;;21.52;47.97
8573;BME280;4324;42.012;24.872;2023-05-08T09:15:34;99064.25;;;21.52;48.18
8573;BME280;4324;42.012;24.872;2023-05-08T09:18:01;99064.81;;;21.66;47.99
8573;BME280;4324;42.012;24.872;2023-05-08T09:20:30;99040.31;;;21.67;47.82
8573;BME280;4324;42.012;24.872;2023-05-08T09:22:59;99028.69;;;21.79;47.67
8573;BME280;4324;42.012;24.872;2023-05-08T09:25:40;99048.31;;;22.03;47.51
8573;BME280;4324;42.012;24.872;2023-05-08T09:28:25;99022.69;;;21.88;47.32
8573;BME280;4324;42.012;24.872;2023-05-08T09:30:53;99043.41;;;21.99;47.61
8573;BME280;4324;42.012;24.872;2023-05-08T09:33:21;99022.69;;;21.77;47.86
8573;BME280;4324;42.012;24.872;2023-05-08T09:35:50;99038.16;;;21.93;47.98
8573;BME280;4324;42.012;24.872;2023-05-08T09:38:34;99033.53;;;22.05;48.01
8573;BME280;4324;42.012;24.872;2023-05-08T09:41:06;99010.63;;;22.19;47.76
8573;BME280;4324;42.012;24.872;2023-05-08T09:43:37;99009.81;;;22.48;47.37
8573;BME280;4324;42.012;24.872;2023-05-08T09:46:26;99002.19;;;22.61;47.37
8573;BME280;4324;42.012;24.872;2023-05-08T09:48:54;99001.50;;;22.66;47.01
8573;BME280;4324;42.012;24.872;2023-05-08T09:51:24;98988.16;;;22.59;47.06
8573;BME280;4324;42.012;24.872;2023-05-08T09:53:52;99016.00;;;22.93;46.99
8573;BME280;4324;42.012;24.872;2023-05-08T09:56:30;99008.28;;;23.19;46.76
8573;BME280;4324;42.012;24.872;2023-05-08T09:58:57;99005.13;;;23.44;46.21
8573;BME280;4324;42.012;24.872;2023-05-08T10:01:28;98979.41;;;23.41;46.08
8573;BME280;4324;42.012;24.872;2023-05-08T10:03:55;98928.69;;;23.27;46.13
8573;BME280;4324;42.012;24.872;2023-05-08T10:06:24;98989.81;;;23.72;45.91
8573;BME280;4324;42.012;24.872;2023-05-08T10:09:06;98994.13;;;23.73;46.01
8573;BME280;4324;42.012;24.872;2023-05-08T10:11:33;98985.22;;;23.72;45.69
8573;BME280;4324;42.012;24.872;2023-05-08T10:14:00;98982.63;;;23.60;45.65
8573;BME280;4324;42.012;24.872;2023-05-08T10:16:28;98967.28;;;23.44;45.94
8573;BME280;4324;42.012;24.872;2023-05-08T10:18:59;98972.81;;;23.54;46.15
8573;BME280;4324;42.012;24.872;2023-05-08T10:21:30;98969.25;;;23.71;45.75
8573;BME280;4324;42.012;24.872;2023-05-08T10:24:04;98975.03;;;23.79;45.91
8573;BME280;4324;42.012;24.872;2023-05-08T10:26:33;98972.59;;;23.78;45.55
8573;BME280;4324;42.012;24.872;2023-05-08T10:29:06;98935.09;;;23.42;45.83
8573;BME280;4324;42.012;24.872;2023-05-08T10:31:35;98957.16;;;23.56;46.01
8573;BME280;4324;42.012;24.872;2023-05-08T10:34:02;98971.53;;;23.62;46.07
8573;BME280;4324;42.012;24.872;2023-05-08T10:36:32;98968.44;;;23.70;45.78
8573;BME280;4324;42.012;24.872;2023-05-08T10:39:02;98954.94;;;23.70;45.86
8573;BME280;4324;42.012;24.872;2023-05-08T10:41:31;98958.25;;;23.77;45.81
8573;BME280;4324;42.012;24.872;2023-05-08T10:43:58;98909.78;;;23.49;45.95
8573;BME280;4324;42.012;24.872;2023-05-08T10:46:33;98950.50;;;23.86;45.81
8573;BME280;4324;42.012;24.872;2023-05-08T10:49:11;98943.22;;;23.86;45.87
8573;BME280;4324;42.012;24.872;2023-05-08T10:51:48;98951.69;;;23.95;45.77
8573;BME280;4324;42.012;24.872;2023-05-08T10:54:18;98958.78;;;24.01;45.82
8573;BME280;4324;42.012;24.872;2023-05-08T10:56:48;98950.66;;;24.01;45.68
8573;BME280;4324;42.012;24.872;2023-05-08T10:59:19;98941.78;;;24.06;45.41
8573;BME280;4324;42.012;24.872;2023-05-08T11:01:46;98924.13;;;23.98;45.77
8573;BME280;4324;42.012;24.872;2023-05-08T11:04:22;98918.22;;;24.01;45.62
8573;BME280;4324;42.012;24.872;2023-05-08T11:06:50;98934.47;;;24.06;45.22
8573;BME280;4324;42.012;24.872;2023-05-08T11:09:19;98892.91;;;23.85;45.52
8573;BME280;4324;42.012;24.872;2023-05-08T11:11:55;98903.66;;;24.07;45.11
8573;BME280;4324;42.012;24.872;2023-05-08T11:14:25;98864.81;;;24.19;45.29
8573;BME280;4324;42.012;24.872;2023-05-08T11:17:04;98898.75;;;24.69;45.03
8573;BME280;4324;42.012;24.872;2023-05-08T11:19:32;98913.38;;;25.10;44.68
8573;BME280;4324;42.012;24.872;2023-05-08T11:22:21;98902.38;;;25.27;44.11
8573;BME280;4324;42.012;24.872;2023-05-08T11:24:58;98898.63;;;25.38;43.92
8573;BME280;4324;42.012;24.872;2023-05-08T11:27:34;98890.53;;;25.48;43.57
8573;BME280;4324;42.012;24.872;2023-05-08T11:30:22;98891.09;;;25.61;43.10
8573;BME280;4324;42.012;24.872;2023-05-08T11:33:12;98903.59;;;25.67;42.99
8573;BME280;4324;42.012;24.872;2023-05-08T11:35:44;98888.69;;;25.64;43.41
8573;BME280;4324;42.012;24.872;2023-05-08T11:38:18;98888.97;;;25.73;43.19
8573;BME280;4324;42.012;24.872;2023-05-08T11:40:54;98890.91;;;25.88;42.86
8573;BME280;4324;42.012;24.872;2023-05-08T11:46:42;98895.47;;;25.77;42.66
8573;BME280;4324;42.012;24.872;2023-05-08T11:49:10;98881.84;;;25.46;42.96
8573;BME280;4324;42.012;24.872;2023-05-08T11:51:39;98876.31;;;25.21;43.18
8573;BME280;4324;42.012;24.872;2023-05-08T11:54:11;98889.38;;;25.29;43.13
8573;BME280;4324;42.012;24.872;2023-05-08T11:56:38;98892.06;;;25.24;43.21
8573;BME280;4324;42.012;24.872;2023-05-08T11:59:06;98891.25;;;25.28;43.11
8573;BME280;4324;42.012;24.872;2023-05-08T12:01:35;98871.69;;;25.11;43.14
8573;BME280;4324;42.012;24.872;2023-05-08T12:04:03;98861.16;;;25.15;43.26
8573;BME280;4324;42.012;24.872;2023-05-08T12:06:31;98882.09;;;25.40;42.95
8573;BME280;4324;42.012;24.872;2023-05-08T12:08:59;98838.38;;;25.21;42.80
8573;BME280;4324;42.012;24.872;2023-05-08T12:11:27;98880.25;;;25.55;42.69
8573;BME280;4324;42.012;24.872;2023-05-08T12:13:54;98873.50;;;25.68;42.87
8573;BME280;4324;42.012;24.872;2023-05-08T12:16:22;98845.56;;;25.68;42.46
8573;BME280;4324;42.012;24.872;2023-05-08T12:18:50;98869.78;;;25.90;42.29
8573;BME280;4324;42.012;24.872;2023-05-08T12:21:17;98847.25;;;25.84;41.85
8573;BME280;4324;42.012;24.872;2023-05-08T12:23:45;98865.16;;;25.90;42.07
8573;BME280;4324;42.012;24.872;2023-05-08T12:26:12;98846.13;;;25.70;41.75
8573;BME280;4324;42.012;24.872;2023-05-08T12:28:43;98821.97;;;25.63;41.96
8573;BME280;4324;42.012;24.872;2023-05-08T12:31:10;98838.03;;;25.90;41.91
8573;BME280;4324;42.012;24.872;2023-05-08T12:33:37;98848.91;;;26.16;41.40
8573;BME280;4324;42.012;24.872;2023-05-08T12:36:05;98837.47;;;26.29;41.61
8573;BME280;4324;42.012;24.872;2023-05-08T12:38:32;98835.88;;;26.48;41.16
8573;BME280;4324;42.012;24.872;2023-05-08T12:41:01;98800.88;;;26.26;40.87
8573;BME280;4324;42.012;24.872;2023-05-08T12:43:33;98833.41;;;26.47;40.86
8573;BME280;4324;42.012;24.872;2023-05-08T12:46:02;98856.25;;;26.46;40.93
8573;BME280;4324;42.012;24.872;2023-05-08T12:48:30;98853.50;;;26.30;40.82
8573;BME280;4324;42.012;24.872;2023-05-08T12:51:01;98840.50;;;26.07;41.08
8573;BME280;4324;42.012;24.872;2023-05-08T12:53:30;98839.94;;;25.95;41.04
8573;BME280;4324;42.012;24.872;2023-05-08T12:56:00;98837.22;;;25.95;41.17
8573;BME280;4324;42.012;24.872;2023-05-08T12:58:29;98817.97;;;25.86;41.21
8573;BME280;4324;42.012;24.872;2023-05-08T13:01:06;98827.72;;;26.02;40.99
8573;BME280;4324;42.012;24.872;2023-05-08T13:03:34;98825.84;;;26.08;41.09
8573;BME280;4324;42.012;24.872;2023-05-08T13:06:02;98844.00;;;26.28;40.96
8573;BME280;4324;42.012;24.872;2023-05-08T13:08:30;98843.44;;;26.36;40.81
8573;BME280;4324;42.012;24.872;2023-05-08T13:10:57;98842.63;;;26.36;40.72
8573;BME280;4324;42.012;24.872;2023-05-08T13:13:25;98829.38;;;26.19;40.78
8573;BME280;4324;42.012;24.872;2023-05-08T13:15:54;98838.59;;;26.13;40.65
8573;BME280;4324;42.012;24.872;2023-05-08T13:18:24;98836.41;;;26.04;40.38
8573;BME280;4324;42.012;24.872;2023-05-08T13:20:52;98838.59;;;25.92;40.90
8573;BME280;4324;42.012;24.872;2023-05-08T13:23:19;98836.97;;;25.96;40.65
8573;BME280;4324;42.012;24.872;2023-05-08T13:25:46;98793.78;;;25.64;40.69
8573;BME280;4324;42.012;24.872;2023-05-08T13:28:13;98829.34;;;25.83;40.80